Time;durP1;ratioP1;P1;durP2;ratioP2;P2;SDS_P1;SDS_P2;PMS_P1;PMS_P2;Temp;Humidity;BMP_temperature;BMP_pressure;BME280_temperature;BME280_humidity;BME280_pressure;Samples;Min_cycle;Max_cycle;Signal;HPM_P1;HPM_P2
2023/04/20 00:00:37;;;;;;;7.03;4.57;;;;;;;;;;4966766;28;20101;-70
2023/04/20 00:03:03;;;;;;;5.60;3.20;;;;;;;;;;4953987;28;20602;-70
2023/04/20 00:05:30;;;;;;;4.80;3.80;;;;;;;;;;4957105;28;20045;-70
2023/04/20 00:07:57;;;;;;;5.25;3.90;;;;;;;;;;4954561;28;20056;-70
2023/04/20 00:10:23;;;;;;;7.45;3.78;;;;;;;;;;4958716;28;20058;-70
2023/04/20 00:12:49;;;;;;;6.43;3.97;;;;;;;;;;4965396;28;20085;-70
2023/04/20 00:15:15;;;;;;;5.07;3.92;;;;;;;;;;4938039;28;20866;-70
2023/04/20 00:17:43;;;;;;;9.82;3.67;;;;;;;;;;4970851;28;20042;-70
2023/04/20 00:20:09;;;;;;;5.82;3.40;;;;;;;;;;4961832;28;20054;-70
2023/04/20 00:22:35;;;;;;;8.10;3.80;;;;;;;;;;4953474;28;20058;-70
2023/04/20 00:25:02;;;;;;;8.50;4.20;;;;;;;;;;4951310;28;20453;-70
2023/04/20 00:27:27;;;;;;;6.47;4.20;;;5.60;99.90;;;;;;4984228;28;20497;-70
2023/04/20 00:29:53;;;;;;;8.15;3.88;;;;;;;;;;4954476;28;20085;-70
2023/04/20 00:32:19;;;;;;;10.82;4.70;;;;;;;;;;4974250;28;20137;-70
2023/04/20 00:34:45;;;;;;;9.70;4.60;;;;;;;;;;4965820;28;20053;-69
2023/04/20 00:37:11;;;;;;;7.60;3.40;;;;;;;;;;4956518;28;20047;-70
2023/04/20 00:39:37;;;;;;;6.63;4.38;;;;;;;;;;4970029;28;20038;-70
2023/04/20 00:42:05;;;;;;;8.40;4.32;;;;;;;;;;4951901;28;20508;-70
2023/04/20 00:44:31;;;;;;;5.78;3.75;;;;;;;;;;4951385;28;20056;-70
2023/04/20 00:46:57;;;;;;;9.70;4.32;;;;;;;;;;4960488;28;20043;-70
2023/04/20 00:49:27;;;;;;;7.20;4.70;;;5.80;99.90;;;;;;4960022;28;20058;-70
2023/04/20 00:51:53;;;;;;;7.63;4.47;;;5.90;99.90;;;;;;4962822;28;20074;-70
2023/04/20 00:54:19;;;;;;;5.07;3.92;;;;;;;;;;4956324;28;20719;-70
2023/04/20 00:56:44;;;;;;;7.57;4.28;;;5.80;99.90;;;;;;4941184;28;20066;-70
2023/04/20 00:59:11;;;;;;;8.98;4.57;;;;;;;;;;4978490;28;20046;-70
2023/04/20 01:01:37;;;;;;;6.82;4.10;;;;;;;;;;4954028;28;20050;-70
2023/04/20 01:04:03;;;;;;;7.13;3.80;;;;;;;;;;4939011;28;20054;-70
2023/04/20 01:06:29;;;;;;;5.85;3.97;;;;;;;;;;4974275;28;20039;-70
2023/04/20 01:08:55;;;;;;;8.90;3.75;;;5.90;99.90;;;;;;4960149;28;20050;-70
2023/04/20 01:11:21;;;;;;;6.03;4.22;;;;;;;;;;4956193;28;20081;-70
2023/04/20 01:13:48;;;;;;;8.30;4.00;;;;;;;;;;4955523;28;20046;-70
2023/04/20 01:16:14;;;;;;;5.22;3.78;;;;;;;;;;4953451;28;20412;-70
2023/04/20 01:18:50;;;;;;;6.40;4.85;;;;;;;;;;4962038;28;20053;-70
2023/04/20 01:21:17;;;;;;;7.80;3.88;;;;;;;;;;4955181;28;20567;-71
2023/04/20 01:23:43;;;;;;;5.93;3.70;;;;;;;;;;4985027;28;20822;-70
2023/04/20 01:26:11;;;;;;;5.47;3.90;;;;;;;;;;4989653;28;20042;-70
2023/04/20 01:28:37;;;;;;;5.50;3.03;;;;;;;;;;4970549;28;20038;-71
2023/04/20 01:31:04;;;;;;;8.13;3.85;;;;;;;;;;4968492;28;20089;-70
2023/04/20 01:33:30;;;;;;;10.88;4.60;;;;;;;;;;4962070;28;20053;-70
2023/04/20 01:35:56;;;;;;;5.82;3.17;;;;;;;;;;4959723;28;20052;-70
2023/04/20 01:38:23;;;;;;;4.25;3.25;;;;;;;;;;4965538;28;20050;-70
2023/04/20 01:40:49;;;;;;;7.63;4.03;;;;;;;;;;4961351;28;20042;-70
2023/04/20 01:43:16;;;;;;;5.75;3.20;;;;;;;;;;4968293;28;20042;-70
2023/04/20 01:45:42;;;;;;;5.85;3.53;;;;;;;;;;4981354;28;20057;-70
2023/04/20 01:48:08;;;;;;;4.65;3.03;;;;;;;;;;4954697;28;20489;-70
2023/04/20 01:50:33;;;;;;;7.20;2.88;;;6.80;99.90;;;;;;4952949;28;20113;-70
2023/04/20 01:52:59;;;;;;;5.22;2.92;;;6.90;99.90;;;;;;4962367;28;20046;-71
2023/04/20 01:55:25;;;;;;;10.73;3.47;;;;;;;;;;4981364;28;20073;-70
2023/04/20 01:57:51;;;;;;;5.72;2.53;;;;;;;;;;4953811;28;20170;-70
2023/04/20 02:00:17;;;;;;;7.75;3.10;;;;;;;;;;4954581;28;20384;-71
2023/04/20 02:02:43;;;;;;;5.18;2.72;;;;;;;;;;4962483;28;20054;-70
2023/04/20 02:05:09;;;;;;;3.75;3.08;;;7.10;99.90;;;;;;4985996;28;20528;-70
2023/04/20 02:07:35;;;;;;;5.13;2.92;;;;;;;;;;4958069;28;20050;-70
2023/04/20 02:10:01;;;;;;;5.00;2.05;;;;;;;;;;4953707;28;20046;-70
2023/04/20 02:12:27;;;;;;;5.65;3.00;;;;;;;;;;4959812;28;20046;-70
2023/04/20 02:14:53;;;;;;;4.07;2.85;;;;;;;;;;4972022;28;20045;-70
2023/04/20 02:17:19;;;;;;;5.30;2.83;;;;;;;;;;4977933;28;20043;-71
2023/04/20 02:19:45;;;;;;;8.07;2.97;;;;;;;;;;4958611;28;20696;-71
2023/04/20 02:22:11;;;;;;;7.88;2.83;;;;;;;;;;4959978;28;20086;-71
2023/04/20 02:24:38;;;;;;;6.60;3.00;;;;;;;;;;4966277;28;20056;-71
2023/04/20 02:27:04;;;;;;;6.47;2.72;;;;;;;;;;4983336;28;20065;-70
2023/04/20 02:29:30;;;;;;;5.32;2.42;;;;;;;;;;4964185;28;20137;-71
2023/04/20 02:31:56;;;;;;;5.03;2.90;;;;;;;;;;4940358;28;20133;-71
2023/04/20 02:34:22;;;;;;;5.95;2.88;;;;;;;;;;4959187;28;20042;-70
2023/04/20 02:36:48;;;;;;;4.07;2.60;;;;;;;;;;4960956;28;20042;-71
2023/04/20 02:39:14;;;;;;;7.15;2.88;;;;;;;;;;4969403;28;20054;-71
2023/04/20 02:41:40;;;;;;;5.95;2.90;;;;;;;;;;4962760;28;20057;-70
2023/04/20 02:44:06;;;;;;;3.83;3.03;;;;;;;;;;4958020;28;20047;-70
2023/04/20 02:46:32;;;;;;;5.15;2.28;;;;;;;;;;4981471;28;20073;-71
2023/04/20 02:48:58;;;;;;;7.25;3.08;;;;;;;;;;4952608;28;20328;-70
2023/04/20 02:51:24;;;;;;;4.75;2.53;;;;;;;;;;4973274;28;20511;-70
2023/04/20 02:53:50;;;;;;;9.13;2.40;;;;;;;;;;4967140;28;20547;-71
2023/04/20 02:56:16;;;;;;;5.57;2.53;;;;;;;;;;4964026;28;20038;-70
2023/04/20 02:58:42;;;;;;;3.30;2.28;;;;;;;;;;4958180;28;20568;-71
2023/04/20 03:01:08;;;;;;;5.28;2.97;;;;;;;;;;4956896;28;20104;-70
2023/04/20 03:03:34;;;;;;;7.28;2.80;;;;;;;;;;4972507;28;20389;-70
2023/04/20 03:06:00;;;;;;;10.18;3.40;;;7.30;99.90;;;;;;4972600;28;20046;-71
2023/04/20 03:08:26;;;;;;;8.02;2.55;;;;;;;;;;4974544;28;20053;-70
2023/04/20 03:10:52;;;;;;;7.40;2.60;;;;;;;;;;4952254;28;20050;-70
2023/04/20 03:13:18;;;;;;;6.78;3.10;;;;;;;;;;4960866;28;20050;-71
2023/04/20 03:15:44;;;;;;;5.05;2.92;;;;;;;;;;4979309;28;20555;-70
2023/04/20 03:18:10;;;;;;;5.72;2.90;;;;;;;;;;4962407;28;20166;-71
2023/04/20 03:20:36;;;;;;;7.90;3.17;;;;;;;;;;4977990;28;20042;-71
2023/04/20 03:23:02;;;;;;;4.85;3.10;;;;;;;;;;4957592;28;20046;-70
2023/04/20 03:25:28;;;;;;;6.93;3.20;;;;;;;;;;4980578;28;20073;-71
2023/04/20 03:27:54;;;;;;;9.70;3.08;;;;;;;;;;4967577;28;20050;-70
2023/04/20 03:30:20;;;;;;;6.10;2.50;;;;;;;;;;4959918;28;20084;-70
2023/04/20 03:32:46;;;;;;;10.02;3.08;;;7.30;99.90;;;;;;4955481;28;20042;-70
2023/04/20 03:35:12;;;;;;;5.03;2.78;;;;;;;;;;4959272;28;20042;-70
2023/04/20 03:37:38;;;;;;;4.03;2.53;;;;;;;;;;4965277;28;20050;-70
2023/04/20 03:40:06;;;;;;;11.48;3.58;;;;;;;;;;4950423;28;20038;-71
2023/04/20 03:42:32;;;;;;;10.95;2.70;;;;;;;;;;4963695;28;20128;-71
2023/04/20 03:44:58;;;;;;;3.50;2.50;;;;;;;;;;4958707;28;20074;-71
2023/04/20 03:47:24;;;;;;;4.07;2.47;;;;;;;;;;4961316;28;20050;-70
2023/04/20 03:49:50;;;;;;;7.00;2.65;;;;;;;;;;4975846;28;20137;-71
2023/04/20 03:52:16;;;;;;;4.47;2.78;;;;;;;;;;4969577;28;20449;-71
2023/04/20 03:54:42;;;;;;;3.88;2.95;;;;;;;;;;4975155;28;20046;-71
2023/04/20 03:57:08;;;;;;;6.50;2.88;;;;;;;;;;4976698;28;20118;-70
2023/04/20 03:59:34;;;;;;;5.10;2.72;;;;;;;;;;4957523;28;20456;-71
2023/04/20 04:02:00;;;;;;;4.30;2.42;;;;;;;;;;4954476;28;20050;-71
2023/04/20 04:04:26;;;;;;;6.50;2.45;;;;;;;;;;4957143;28;20501;-71
2023/04/20 04:06:52;;;;;;;4.55;2.42;;;;;;;;;;4967974;28;20042;-71
2023/04/20 04:09:18;;;;;;;7.97;2.63;;;;;;;;;;4981913;28;20054;-70
2023/04/20 04:11:44;;;;;;;11.00;4.28;;;7.80;99.90;;;;;;4977667;28;20042;-70
2023/04/20 04:14:10;;;;;;;4.72;2.70;;;;;;;;;;4963538;28;20496;-70
2023/04/20 04:16:36;;;;;;;6.50;2.42;;;;;;;;;;4961783;28;20509;-71
2023/04/20 04:19:01;;;;;;;6.63;2.53;;;;;;;;;;4982642;28;20045;-70
2023/04/20 04:21:27;;;;;;;9.13;2.83;;;;;;;;;;4977296;28;20061;-70
2023/04/20 04:23:53;;;;;;;4.55;2.58;;;;;;;;;;4963460;28;20051;-71
2023/04/20 04:26:23;;;;;;;7.50;2.70;;;7.90;99.90;;;;;;4960284;28;20058;-70
2023/04/20 04:28:50;;;;;;;7.55;2.60;;;7.80;99.90;;;;;;4960421;28;20408;-71
2023/04/20 04:31:20;;;;;;;5.68;2.58;;;;;;;;;;4956828;28;20141;-71
2023/04/20 04:33:46;;;;;;;4.10;2.63;;;;;;;;;;4977595;28;20042;-70
2023/04/20 04:36:16;;;;;;;4.43;2.42;;;;;;;;;;4960737;28;20681;-70
2023/04/20 04:38:45;;;;;;;5.65;2.15;;;;;;;;;;4980583;28;20043;-71
2023/04/20 04:41:11;;;;;;;3.42;2.17;;;;;;;;;;4953381;28;20100;-71
2023/04/20 04:43:38;;;;;;;5.43;2.30;;;7.80;99.90;;;;;;4954201;28;20046;-71
2023/04/20 04:46:12;;;;;;;4.70;2.10;;;7.80;99.90;;;;;;4954902;28;20046;-71
2023/04/20 04:48:39;;;;;;;3.97;2.08;;;7.70;99.90;;;;;;4960203;28;20082;-71
2023/04/20 04:51:05;;;;;;;4.65;2.05;;;;;;;;;;4964594;28;20130;-71
2023/04/20 04:53:32;;;;;;;7.80;2.22;;;;;;;;;;4962900;28;20065;-71
2023/04/20 04:55:57;;;;;;;2.60;1.88;;;7.70;99.90;;;;;;4960997;28;20054;-71
2023/04/20 04:58:23;;;;;;;4.20;2.10;;;;;;;;;;4975256;28;20046;-71
2023/04/20 05:01:27;;;;;;;3.63;2.22;;;;;;;;;;4957966;28;20097;-71
2023/04/20 05:03:53;;;;;;;3.65;1.77;;;;;;;;;;4965743;28;20739;-71
2023/04/20 05:06:19;;;;;;;7.32;2.50;;;;;;;;;;4944599;28;20057;-71
2023/04/20 05:08:45;;;;;;;5.22;2.33;;;;;;;;;;4970862;28;20046;-70
2023/04/20 05:11:11;;;;;;;6.72;2.58;;;;;;;;;;4975040;28;20050;-71
2023/04/20 05:13:37;;;;;;;5.68;2.45;;;;;;;;;;4958007;28;20606;-71
2023/04/20 05:16:03;;;;;;;4.63;2.95;;;7.70;99.90;;;;;;4981718;28;20121;-71
2023/04/20 05:18:29;;;;;;;3.95;2.53;;;;;;;;;;4958903;28;20046;-70
2023/04/20 05:20:55;;;;;;;7.95;2.28;;;;;;;;;;4969569;28;20067;-71
2023/04/20 05:23:21;;;;;;;4.78;2.47;;;;;;;;;;4956169;28;20090;-71
2023/04/20 05:25:47;;;;;;;5.38;2.70;;;;;;;;;;4954504;28;20791;-71
2023/04/20 05:28:13;;;;;;;7.55;3.20;;;;;;;;;;4961973;28;20057;-71
2023/04/20 05:30:39;;;;;;;5.90;3.03;;;;;;;;;;4980519;28;20046;-71
2023/04/20 05:33:05;;;;;;;6.07;2.22;;;;;;;;;;4950911;28;20046;-71
2023/04/20 05:35:31;;;;;;;6.97;2.55;;;;;;;;;;4956451;28;20079;-71
2023/04/20 05:37:59;;;;;;;5.47;2.97;;;;;;;;;;4957840;28;20042;-71
2023/04/20 05:40:25;;;;;;;3.53;2.35;;;;;;;;;;4951438;28;20047;-71
2023/04/20 05:42:51;;;;;;;5.20;2.78;;;;;;;;;;4962628;28;20054;-71
2023/04/20 05:45:17;;;;;;;3.65;2.42;;;;;;;;;;4962040;28;20127;-71
2023/04/20 05:47:51;;;;;;;3.47;2.60;;;;;;;;;;4961591;28;20521;-71
2023/04/20 05:50:17;;;;;;;9.25;2.90;;;;;;;;;;4962485;28;20125;-71
2023/04/20 05:52:43;;;;;;;3.92;2.63;;;;;;;;;;4957447;28;20126;-71
2023/04/20 05:55:09;;;;;;;6.47;2.53;;;7.40;99.90;;;;;;4956285;28;20042;-71
2023/04/20 05:57:41;;;;;;;12.10;3.88;;;;;;;;;;4972886;28;20069;-71
2023/04/20 06:00:08;;;;;;;5.80;2.67;;;;;;;;;;4950353;28;20081;-71
2023/04/20 06:02:34;;;;;;;4.25;2.63;;;7.20;99.90;;;;;;4958331;28;20054;-71
2023/04/20 06:05:00;;;;;;;5.00;3.00;;;;;;;;;;4977115;28;20054;-71
2023/04/20 06:07:26;;;;;;;5.13;2.33;;;7.30;99.90;;;;;;4957272;28;20049;-71
2023/04/20 06:09:52;;;;;;;7.82;2.92;;;;;;;;;;4968818;28;20046;-71
2023/04/20 06:12:18;;;;;;;8.05;2.50;;;;;;;;;;4963785;28;20058;-71
2023/04/20 06:14:43;;;;;;;8.50;2.90;;;;;;;;;;4981908;28;20083;-71
2023/04/20 06:17:09;;;;;;;6.47;2.85;;;7.20;99.90;;;;;;4963001;28;20492;-71
2023/04/20 06:19:35;;;;;;;3.58;2.55;;;;;;;;;;4980310;28;20054;-71
2023/04/20 06:22:05;;;;;;;5.78;3.35;;;;;;;;;;4961423;28;20058;-72
2023/04/20 06:24:31;;;;;;;7.78;2.58;;;;;;;;;;4961642;28;20070;-71
2023/04/20 06:26:57;;;;;;;8.50;3.03;;;;;;;;;;4956272;28;20050;-71
2023/04/20 06:29:24;;;;;;;5.85;2.50;;;;;;;;;;4952147;28;20535;-71
2023/04/20 06:31:49;;;;;;;4.30;2.88;;;7.00;99.90;;;;;;4970550;28;20053;-71
2023/04/20 06:34:15;;;;;;;3.10;2.38;;;;;;;;;;4985711;28;20426;-71
2023/04/20 06:36:42;;;;;;;6.57;2.55;;;;;;;;;;4965854;28;20101;-72
2023/04/20 06:39:10;;;;;;;4.35;2.45;;;;;;;;;;4960193;28;20519;-72
2023/04/20 06:41:36;;;;;;;5.30;2.80;;;;;;;;;;4960015;28;20456;-75
2023/04/20 06:44:02;;;;;;;5.00;2.83;;;;;;;;;;4964400;28;20045;-72
2023/04/20 06:46:28;;;;;;;4.38;2.97;;;;;;;;;;4962826;28;20042;-72
2023/04/20 06:48:54;;;;;;;5.68;2.95;;;;;;;;;;4968212;28;20042;-69
2023/04/20 06:51:20;;;;;;;4.15;2.53;;;7.00;99.90;;;;;;4981145;28;20054;-69
2023/04/20 06:53:46;;;;;;;5.43;2.70;;;;;;;;;;4940694;28;20066;-70
2023/04/20 06:56:12;;;;;;;8.05;3.05;;;;;;;;;;4961763;28;20061;-70
2023/04/20 06:58:38;;;;;;;4.22;3.13;;;;;;;;;;4960008;28;20038;-70
2023/04/20 07:01:04;;;;;;;9.40;3.08;;;;;;;;;;4958184;28;20128;-69
2023/04/20 07:03:30;;;;;;;6.47;3.55;;;7.00;99.90;;;;;;4941105;28;20055;-70
2023/04/20 07:05:56;;;;;;;6.32;3.28;;;;;;;;;;4957884;28;20673;-69
2023/04/20 07:08:22;;;;;;;5.75;2.60;;;;;;;;;;4979318;28;20050;-70
2023/04/20 07:10:51;;;;;;;6.68;2.88;;;;;;;;;;4973641;28;20382;-70
2023/04/20 07:13:17;;;;;;;5.55;2.75;;;;;;;;;;4979529;28;20053;-70
2023/04/20 07:15:44;;;;;;;8.27;3.42;;;;;;;;;;4973232;28;20069;-70
2023/04/20 07:18:10;;;;;;;3.55;2.78;;;;;;;;;;4971999;28;20145;-70
2023/04/20 07:20:36;;;;;;;7.00;3.53;;;;;;;;;;4964824;28;20098;-70
2023/04/20 07:23:02;;;;;;;6.72;3.47;;;;;;;;;;4959566;28;20155;-71
2023/04/20 07:25:31;;;;;;;7.57;3.60;;;;;;;;;;4958199;28;20177;-70
2023/04/20 07:27:57;;;;;;;5.43;3.47;;;;;;;;;;4957861;28;20508;-72
2023/04/20 07:30:23;;;;;;;6.30;3.17;;;;;;;;;;4962514;28;20050;-72
2023/04/20 07:32:49;;;;;;;8.85;3.58;;;;;;;;;;4967246;28;20042;-70
2023/04/20 07:35:16;;;;;;;7.00;3.58;;;;;;;;;;4962369;28;20109;-70
2023/04/20 07:37:42;;;;;;;6.70;3.17;;;;;;;;;;4960514;28;20042;-71
2023/04/20 07:40:08;;;;;;;4.43;3.13;;;;;;;;;;4965640;28;20105;-71
2023/04/20 07:42:35;;;;;;;6.00;3.78;;;;;;;;;;4964372;28;20077;-71
2023/04/20 07:45:02;;;;;;;7.38;4.00;;;;;;;;;;4981593;28;20049;-71
2023/04/20 07:47:28;;;;;;;6.25;3.75;;;;;;;;;;4964935;28;20401;-71
2023/04/20 07:49:54;;;;;;;6.53;3.47;;;;;;;;;;4953238;28;20038;-72
2023/04/20 07:52:20;;;;;;;6.18;3.72;;;;;;;;;;4958814;28;20065;-71
2023/04/20 07:54:46;;;;;;;5.38;3.50;;;;;;;;;;4974142;28;20043;-71
2023/04/20 07:57:12;;;;;;;7.53;3.90;;;;;;;;;;4966117;28;20412;-70
2023/04/20 07:59:39;;;;;;;7.43;3.42;;;;;;;;;;4974221;28;20053;-72
2023/04/20 08:02:05;;;;;;;7.57;3.72;;;;;;;;;;4955931;28;20104;-70
2023/04/20 08:04:31;;;;;;;6.43;4.07;;;6.60;99.90;;;;;;4978927;28;20123;-70
2023/04/20 08:06:57;;;;;;;4.28;3.85;;;;;;;;;;4978973;28;20121;-71
2023/04/20 08:09:24;;;;;;;6.45;3.45;;;;;;;;;;4980628;28;20567;-71
2023/04/20 08:11:51;;;;;;;4.93;3.88;;;;;;;;;;4961247;28;20085;-71
2023/04/20 08:14:16;;;;;;;4.55;3.47;;;6.80;99.90;;;;;;4963110;28;20046;-71
2023/04/20 08:16:42;;;;;;;6.63;4.00;;;;;;;;;;4963490;28;20104;-71
2023/04/20 08:19:11;;;;;;;7.40;4.25;;;;;;;;;;4976256;28;20736;-71
2023/04/20 08:21:37;;;;;;;6.03;3.70;;;;;;;;;;4956588;28;20559;-71
2023/04/20 08:24:03;;;;;;;4.53;3.65;;;;;;;;;;4972126;28;20059;-70
2023/04/20 08:26:30;;;;;;;7.22;4.00;;;;;;;;;;4965904;28;20073;-71
2023/04/20 08:28:56;;;;;;;7.95;3.92;;;;;;;;;;4983882;28;20048;-70
2023/04/20 08:31:22;;;;;;;4.85;4.03;;;7.10;99.90;;;;;;4963238;28;20128;-71
2023/04/20 08:33:48;;;;;;;5.35;4.22;;;;;;;;;;4956525;28;20053;-72
2023/04/20 08:36:14;;;;;;;7.53;4.22;;;;;;;;;;4950268;28;20122;-71
2023/04/20 08:38:40;;;;;;;4.93;3.67;;;;;;;;;;4955534;28;20631;-71
2023/04/20 08:41:06;;;;;;;6.32;3.92;;;;;;;;;;4967516;28;20131;-70
2023/04/20 08:43:32;;;;;;;4.60;3.45;;;;;;;;;;4964700;28;20057;-70
2023/04/20 08:46:00;;;;;;;6.90;3.75;;;;;;;;;;4976538;28;20081;-71
2023/04/20 08:48:27;;;;;;;5.75;3.83;;;;;;;;;;4959547;28;20061;-71
2023/04/20 08:50:54;;;;;;;8.82;3.92;;;;;;;;;;4955348;28;20149;-71
2023/04/20 08:53:21;;;;;;;6.07;3.67;;;;;;;;;;4964906;28;20054;-71
2023/04/20 08:55:50;;;;;;;4.55;3.58;;;;;;;;;;4979838;28;20061;-71
2023/04/20 08:58:17;;;;;;;6.20;3.45;;;;;;;;;;4963249;28;20053;-70
2023/04/20 09:00:47;;;;;;;8.27;3.70;;;;;;;;;;4953342;28;21013;-71
2023/04/20 09:03:13;;;;;;;6.53;4.25;;;;;;;;;;4965313;28;20061;-71
2023/04/20 09:05:39;;;;;;;6.88;3.38;;;;;;;;;;4971117;28;20046;-71
2023/04/20 09:08:05;;;;;;;4.80;3.72;;;;;;;;;;4963774;28;20055;-70
2023/04/20 09:10:42;;;;;;;6.88;3.78;;;;;;;;;;4936679;28;20053;-71
2023/04/20 09:13:09;;;;;;;6.50;4.22;;;;;;;;;;4961477;28;20078;-71
2023/04/20 09:15:35;;;;;;;8.07;4.03;;;;;;;;;;4967211;28;20074;-71
2023/04/20 09:18:13;;;;;;;6.18;4.22;;;7.40;99.90;;;;;;4962597;28;20441;-71
2023/04/20 09:20:39;;;;;;;6.82;3.72;;;;;;;;;;4966166;28;20109;-71
2023/04/20 09:23:15;;;;;;;8.32;4.50;;;;;;;;;;4972982;28;20504;-71
2023/04/20 09:25:42;;;;;;;4.95;3.67;;;;;;;;;;4960831;28;20054;-71
2023/04/20 09:28:09;;;;;;;6.00;4.03;;;;;;;;;;4966183;28;20130;-70
2023/04/20 09:30:38;;;;;;;10.73;4.07;;;;;;;;;;4952810;28;20073;-70
2023/04/20 09:33:06;;;;;;;6.78;4.25;;;;;;;;;;4955750;28;20407;-71
2023/04/20 09:35:32;;;;;;;6.43;4.28;;;;;;;;;;4961732;28;20047;-71
2023/04/20 09:37:58;;;;;;;8.27;4.30;;;;;;;;;;4970250;28;20038;-72
2023/04/20 09:40:25;;;;;;;9.43;4.80;;;;;;;;;;4958091;28;20058;-72
2023/04/20 09:42:53;;;;;;;7.18;4.10;;;;;;;;;;4973705;28;20089;-71
2023/04/20 09:45:20;;;;;;;6.82;4.38;;;;;;;;;;4975283;28;20057;-70
2023/04/20 09:47:48;;;;;;;7.53;4.43;;;;;;;;;;4982345;28;20075;-72
2023/04/20 09:50:15;;;;;;;5.78;4.57;;;;;;;;;;4954241;28;20505;-71
2023/04/20 09:52:42;;;;;;;9.68;5.00;;;;;;;;;;4984089;28;20049;-71
2023/04/20 09:55:09;;;;;;;8.20;4.82;;;;;;;;;;4967766;28;20089;-71
2023/04/20 09:57:35;;;;;;;11.82;4.85;;;;;;;;;;4985129;28;20105;-71
2023/04/20 10:00:05;;;;;;;7.82;5.20;;;;;;;;;;4956183;28;20050;-71
2023/04/20 10:02:31;;;;;;;8.35;4.75;;;;;;;;;;4979791;28;20156;-71
2023/04/20 10:04:57;;;;;;;9.32;4.72;;;;;;;;;;4961428;28;20456;-71
2023/04/20 10:07:25;;;;;;;10.65;5.65;;;;;;;;;;4955184;28;20162;-71
2023/04/20 10:10:36;;;;;;;;;;;;;;;;;;;;;
2023/04/20 10:13:03;;;;;;;9.00;5.22;;;;;;;;;;4964632;28;20903;-71
2023/04/20 10:15:39;;;;;;;7.75;5.15;;;;;;;;;;4961754;28;20148;-71
2023/04/20 10:18:22;;;;;;;8.88;5.82;;;;;;;;;;4969676;28;20042;-73
2023/04/20 10:20:48;;;;;;;9.43;5.55;;;;;;;;;;4964572;28;20496;-73
2023/04/20 10:23:15;;;;;;;7.03;5.15;;;;;;;;;;4964234;28;20061;-72
2023/04/20 10:25:41;;;;;;;7.35;4.63;;;;;;;;;;4962849;28;20794;-72
2023/04/20 10:28:09;;;;;;;8.20;5.50;;;;;;;;;;4979571;28;20070;-72
2023/04/20 10:30:36;;;;;;;8.15;5.35;;;;;;;;;;4961453;28;20424;-71
2023/04/20 10:33:06;;;;;;;8.45;5.20;;;;;;;;;;4960396;28;20051;-71
2023/04/20 10:35:41;;;;;;;8.02;5.25;;;;;;;;;;4961791;28;20042;-71
2023/04/20 10:38:10;;;;;;;10.70;5.25;;;;;;;;;;4971889;28;20092;-71
2023/04/20 10:40:36;;;;;;;5.55;3.78;;;;;;;;;;4976233;28;20049;-71
2023/04/20 10:43:02;;;;;;;9.38;5.13;;;;;;;;;;4964850;28;20151;-71
2023/04/20 10:45:40;;;;;;;8.68;5.38;;;8.00;99.90;;;;;;4964895;28;20153;-71
2023/04/20 10:48:10;;;;;;;10.50;5.70;;;;;;;;;;4956688;28;20732;-70
2023/04/20 10:50:36;;;;;;;8.18;5.30;;;;;;;;;;4959252;28;20054;-71
2023/04/20 10:53:03;;;;;;;9.15;5.88;;;;;;;;;;4984860;28;20046;-71
2023/04/20 10:55:28;;;;;;;9.57;6.05;;;;;;;;;;4966370;28;20055;-72
2023/04/20 10:57:54;;;;;;;9.60;5.43;;;;;;;;;;4967334;28;20039;-71
2023/04/20 11:00:22;;;;;;;8.80;6.00;;;;;;;;;;4956510;28;20050;-72
2023/04/20 11:02:49;;;;;;;7.75;5.15;;;;;;;;;;4960762;28;20061;-72
2023/04/20 11:05:15;;;;;;;11.23;5.45;;;;;;;;;;4981735;28;20052;-72
2023/04/20 11:07:54;;;;;;;9.18;6.03;;;;;;;;;;4963064;28;20596;-70
2023/04/20 11:10:24;;;;;;;11.73;5.72;;;;;;;;;;4982866;28;20050;-71
2023/04/20 11:12:50;;;;;;;7.28;5.57;;;;;;;;;;4986079;28;20058;-71
2023/04/20 11:15:17;;;;;;;10.77;6.13;;;;;;;;;;4962326;28;20038;-72
2023/04/20 11:17:44;;;;;;;9.52;5.72;;;;;;;;;;4961275;28;20129;-70
2023/04/20 11:20:14;;;;;;;7.55;5.68;;;;;;;;;;4964101;28;20065;-72
2023/04/20 11:22:41;;;;;;;10.23;7.05;;;;;;;;;;4960693;28;20066;-73
2023/04/20 11:25:09;;;;;;;11.27;6.07;;;9.70;99.90;;;;;;4962448;28;20058;-72
2023/04/20 11:27:36;;;;;;;11.75;6.47;;;;;;;;;;4964393;28;20132;-70
2023/04/20 11:30:04;;;;;;;8.80;5.65;;;;;;;;;;4951891;28;20055;-72
2023/04/20 11:32:31;;;;;;;9.50;6.40;;;;;;;;;;4966613;28;20149;-71
2023/04/20 11:34:58;;;;;;;10.68;7.25;;;9.90;99.90;;;;;;4965887;28;20524;-70
2023/04/20 11:37:25;;;;;;;11.93;7.30;;;;;;;;;;4985891;28;20523;-71
2023/04/20 11:40:08;;;;;;;9.43;6.93;;;;;;;;;;4955353;28;20046;-71
2023/04/20 11:42:34;;;;;;;10.80;7.35;;;;;;;;;;4965780;28;20464;-71
2023/04/20 11:45:00;;;;;;;11.55;7.65;;;;;;;;;;4964764;28;20042;-71
2023/04/20 11:47:27;;;;;;;10.05;7.13;;;;;;;;;;4965828;28;20057;-71
2023/04/20 11:49:53;;;;;;;9.93;7.18;;;;;;;;;;4961108;28;20046;-71
2023/04/20 11:52:19;;;;;;;10.15;7.20;;;;;;;;;;4984634;28;20097;-71
2023/04/20 11:54:45;;;;;;;9.43;7.32;;;;;;;;;;4960380;28;20097;-72
2023/04/20 11:57:11;;;;;;;12.13;6.97;;;;;;;;;;4961188;28;20449;-73
2023/04/20 11:59:37;;;;;;;14.35;7.53;;;;;;;;;;4960053;28;20051;-73
2023/04/20 12:02:04;;;;;;;9.52;6.40;;;;;;;;;;4965452;28;20054;-72
2023/04/20 12:04:30;;;;;;;10.45;7.80;;;;;;;;;;4967737;28;20678;-73
2023/04/20 12:07:01;;;;;;;10.77;7.03;;;;;;;;;;4979138;28;20500;-72
2023/04/20 12:09:27;;;;;;;10.40;6.63;;;;;;;;;;4959467;28;20528;-72
2023/04/20 12:11:53;;;;;;;9.65;6.82;;;;;;;;;;4961995;28;20517;-72
2023/04/20 12:14:19;;;;;;;9.73;6.72;;;10.70;99.90;;;;;;4963673;28;20396;-73
2023/04/20 12:16:45;;;;;;;9.77;7.20;;;;;;;;;;4972007;28;20048;-72
2023/04/20 12:19:11;;;;;;;9.50;6.53;;;;;;;;;;4981366;28;20040;-72
2023/04/20 12:21:37;;;;;;;10.68;6.50;;;;;;;;;;4961982;28;20094;-72
2023/04/20 12:24:03;;;;;;;9.65;6.70;;;;;;;;;;4959791;28;20110;-72
2023/04/20 12:26:29;;;;;;;9.38;6.85;;;;;;;;;;4957031;28;20584;-72
2023/04/20 12:28:57;;;;;;;10.50;7.45;;;;;;;;;;4959729;28;20505;-72
2023/04/20 12:31:23;;;;;;;9.15;7.63;;;;;;;;;;4953480;28;20047;-72
2023/04/20 12:33:49;;;;;;;10.73;7.85;;;;;;;;;;4957951;28;20421;-72
2023/04/20 12:36:16;;;;;;;10.45;6.53;;;;;;;;;;4977790;28;20050;-72
2023/04/20 12:38:42;;;;;;;10.57;7.13;;;;;;;;;;4974518;28;20042;-72
2023/04/20 12:41:08;;;;;;;9.07;6.55;;;;;;;;;;4967203;28;20050;-72
2023/04/20 12:43:34;;;;;;;10.65;8.05;;;;;;;;;;4981711;28;20058;-72
2023/04/20 12:46:00;;;;;;;11.88;7.60;;;;;;;;;;4961325;28;20038;-72
2023/04/20 12:48:25;;;;;;;13.40;7.13;;;10.80;99.90;;;;;;4982172;28;20452;-73
2023/04/20 12:50:51;;;;;;;10.32;6.53;;;;;;;;;;4964358;28;20042;-72
2023/04/20 12:53:18;;;;;;;12.13;7.78;;;;;;;;;;4966423;28;20039;-72
2023/04/20 12:55:44;;;;;;;11.13;7.85;;;;;;;;;;4979300;28;20073;-73
2023/04/20 12:58:10;;;;;;;10.82;6.95;;;;;;;;;;4954860;28;20098;-72
2023/04/20 13:00:37;;;;;;;9.88;7.15;;;;;;;;;;4969803;28;20133;-73
2023/04/20 13:03:03;;;;;;;13.20;8.43;;;;;;;;;;4958224;28;20050;-72
2023/04/20 13:05:29;;;;;;;9.70;6.93;;;;;;;;;;4957029;28;20054;-72
2023/04/20 13:07:55;;;;;;;10.18;6.60;;;;;;;;;;4967818;28;20424;-73
2023/04/20 13:10:21;;;;;;;11.15;8.02;;;;;;;;;;4952692;28;20050;-73
2023/04/20 13:12:47;;;;;;;9.65;7.32;;;;;;;;;;4955674;28;20459;-73
2023/04/20 13:15:13;;;;;;;11.82;7.72;;;;;;;;;;4962262;28;20078;-72
2023/04/20 13:17:40;;;;;;;10.25;7.65;;;;;;;;;;4976577;28;20058;-73
2023/04/20 13:20:06;;;;;;;10.10;8.18;;;;;;;;;;4964574;28;20050;-72
2023/04/20 13:22:32;;;;;;;10.52;7.20;;;;;;;;;;4965998;28;20777;-73
2023/04/20 13:24:58;;;;;;;11.00;7.60;;;;;;;;;;4970609;28;20054;-73
2023/04/20 13:27:24;;;;;;;10.30;7.40;;;;;;;;;;4963689;28;20050;-72
2023/04/20 13:29:50;;;;;;;9.73;7.05;;;;;;;;;;4954371;28;20050;-73
2023/04/20 13:32:16;;;;;;;10.07;5.43;;;;;;;;;;4961288;28;20046;-73
2023/04/20 13:34:42;;;;;;;8.82;6.63;;;;;;;;;;4962444;28;20042;-73
2023/04/20 13:37:08;;;;;;;10.85;7.25;;;;;;;;;;4963223;28;20046;-73
2023/04/20 13:39:34;;;;;;;10.13;7.57;;;;;;;;;;4961605;28;20089;-73
2023/04/20 13:42:00;;;;;;;9.57;5.72;;;;;;;;;;4959723;28;20038;-73
2023/04/20 13:44:26;;;;;;;10.38;7.70;;;;;;;;;;4959041;28;20054;-72
2023/04/20 13:46:52;;;;;;;10.10;6.50;;;;;;;;;;4951685;28;20050;-73
2023/04/20 13:49:21;;;;;;;12.02;7.65;;;;;;;;;;4961736;28;20051;-73
2023/04/20 13:51:47;;;;;;;10.00;7.55;;;;;;;;;;4968181;28;20762;-73
2023/04/20 13:54:13;;;;;;;12.07;7.90;;;;;;;;;;4958015;28;20257;-73
2023/04/20 13:56:39;;;;;;;18.30;10.35;;;;;;;;;;4962578;28;20052;-73
2023/04/20 13:59:05;;;;;;;15.25;7.20;;;;;;;;;;4959119;28;20045;-73
2023/04/20 14:01:31;;;;;;;9.65;7.28;;;;;;;;;;4962904;28;20565;-73
2023/04/20 14:03:57;;;;;;;9.65;7.32;;;;;;;;;;4962166;28;20051;-73
2023/04/20 14:06:23;;;;;;;10.32;7.95;;;;;;;;;;4971806;28;20285;-73
2023/04/20 14:14:01;;;;;;;9.73;7.10;;;;;;;;;;5867574;22;20054;-73
2023/04/20 14:16:27;;;;;;;7.40;6.15;;;;;;;;;;4969300;28;20492;-73
2023/04/20 14:18:53;;;;;;;10.80;7.47;;;;;;;;;;4962733;28;20043;-72
2023/04/20 14:21:19;;;;;;;10.93;6.50;;;;;;;;;;4961090;28;20150;-73
2023/04/20 14:23:45;;;;;;;10.13;6.72;;;;;;;;;;4958464;28;20098;-73
2023/04/20 14:26:11;;;;;;;10.13;6.97;;;;;;;;;;4963506;28;20047;-72
2023/04/20 14:28:37;;;;;;;9.95;7.43;;;;;;;;;;4954982;28;20049;-73
2023/04/20 14:31:03;;;;;;;11.30;6.80;;;;;;;;;;4950315;28;20047;-73
2023/04/20 14:33:29;;;;;;;10.40;7.40;;;;;;;;;;4959881;28;20097;-72